sensor_id;sensor_type;location;lat;lon;timestamp;P1;durP1;ratioP1;P2;durP2;ratioP2
47772;SDS011;33534;51.028;13.716;2024-02-23T00:00:06;268.42;;;177.52;;
47772;SDS011;33534;51.028;13.716;2024-02-23T00:02:32;262.73;;;175.05;;
47772;SDS011;33534;51.028;13.716;2024-02-23T00:04:58;270.30;;;180.00;;
47772;SDS011;33534;51.028;13.716;2024-02-23T00:07:24;267.73;;;178.18;;
47772;SDS011;33534;51.028;13.716;2024-02-23T00:09:50;265.45;;;176.05;;
47772;SDS011;33534;51.028;13.716;2024-02-23T00:12:16;272.75;;;178.82;;
47772;SDS011;33534;51.028;13.716;2024-02-23T00:14:42;254.77;;;170.00;;
47772;SDS011;33534;51.028;13.716;2024-02-23T00:17:08;271.50;;;176.55;;
47772;SDS011;33534;51.028;13.716;2024-02-23T00:19:34;260.08;;;170.20;;
47772;SDS011;33534;51.028;13.716;2024-02-23T00:22:00;262.60;;;174.82;;
47772;SDS011;33534;51.028;13.716;2024-02-23T00:24:26;258.55;;;170.68;;
47772;SDS011;33534;51.028;13.716;2024-02-23T00:26:53;254.02;;;168.00;;
47772;SDS011;33534;51.028;13.716;2024-02-23T00:29:19;258.42;;;168.60;;
47772;SDS011;33534;51.028;13.716;2024-02-23T00:31:46;251.05;;;167.52;;
47772;SDS011;33534;51.028;13.716;2024-02-23T00:34:12;249.93;;;168.75;;
47772;SDS011;33534;51.028;13.716;2024-02-23T00:36:39;247.52;;;166.13;;
47772;SDS011;33534;51.028;13.716;2024-02-23T00:39:05;255.05;;;168.07;;
47772;SDS011;33534;51.028;13.716;2024-02-23T00:41:35;249.65;;;164.60;;
47772;SDS011;33534;51.028;13.716;2024-02-23T00:44:01;246.73;;;163.77;;
47772;SDS011;33534;51.028;13.716;2024-02-23T00:46:27;243.90;;;157.65;;
47772;SDS011;33534;51.028;13.716;2024-02-23T00:48:53;241.27;;;160.10;;
47772;SDS011;33534;51.028;13.716;2024-02-23T00:51:19;237.45;;;156.32;;
47772;SDS011;33534;51.028;13.716;2024-02-23T00:53:45;235.60;;;159.65;;
47772;SDS011;33534;51.028;13.716;2024-02-23T00:56:12;238.48;;;157.73;;
47772;SDS011;33534;51.028;13.716;2024-02-23T00:58:38;239.48;;;157.20;;
47772;SDS011;33534;51.028;13.716;2024-02-23T01:01:04;234.75;;;153.85;;
47772;SDS011;33534;51.028;13.716;2024-02-23T01:03:30;229.60;;;155.00;;
47772;SDS011;33534;51.028;13.716;2024-02-23T01:05:56;233.85;;;154.38;;
47772;SDS011;33534;51.028;13.716;2024-02-23T01:08:22;241.15;;;156.82;;
47772;SDS011;33534;51.028;13.716;2024-02-23T01:10:48;230.85;;;152.93;;
47772;SDS011;33534;51.028;13.716;2024-02-23T01:13:14;231.52;;;150.65;;
47772;SDS011;33534;51.028;13.716;2024-02-23T01:15:41;223.35;;;150.98;;
47772;SDS011;33534;51.028;13.716;2024-02-23T01:18:07;232.55;;;149.48;;
47772;SDS011;33534;51.028;13.716;2024-02-23T01:20:33;223.00;;;148.20;;
47772;SDS011;33534;51.028;13.716;2024-02-23T01:22:59;219.15;;;145.90;;
47772;SDS011;33534;51.028;13.716;2024-02-23T01:25:25;219.07;;;148.27;;
47772;SDS011;33534;51.028;13.716;2024-02-23T01:27:51;220.32;;;145.38;;
47772;SDS011;33534;51.028;13.716;2024-02-23T01:30:17;224.23;;;147.57;;
47772;SDS011;33534;51.028;13.716;2024-02-23T01:32:46;218.55;;;143.55;;
47772;SDS011;33534;51.028;13.716;2024-02-23T01:35:12;218.93;;;146.25;;
47772;SDS011;33534;51.028;13.716;2024-02-23T01:37:38;208.02;;;141.45;;
47772;SDS011;33534;51.028;13.716;2024-02-23T01:40:04;212.80;;;143.52;;
47772;SDS011;33534;51.028;13.716;2024-02-23T01:42:31;211.70;;;142.07;;
47772;SDS011;33534;51.028;13.716;2024-02-23T01:44:57;212.32;;;142.07;;
47772;SDS011;33534;51.028;13.716;2024-02-23T01:47:23;211.63;;;140.25;;
47772;SDS011;33534;51.028;13.716;2024-02-23T01:49:49;210.90;;;142.18;;
47772;SDS011;33534;51.028;13.716;2024-02-23T01:52:16;206.65;;;137.77;;
47772;SDS011;33534;51.028;13.716;2024-02-23T01:54:43;209.77;;;140.27;;
47772;SDS011;33534;51.028;13.716;2024-02-23T01:57:09;202.20;;;134.27;;
47772;SDS011;33534;51.028;13.716;2024-02-23T01:59:36;202.82;;;135.55;;
47772;SDS011;33534;51.028;13.716;2024-02-23T02:02:04;200.10;;;133.95;;
47772;SDS011;33534;51.028;13.716;2024-02-23T02:04:30;194.40;;;130.75;;
47772;SDS011;33534;51.028;13.716;2024-02-23T02:06:56;202.38;;;132.35;;
47772;SDS011;33534;51.028;13.716;2024-02-23T02:09:23;194.70;;;129.93;;
47772;SDS011;33534;51.028;13.716;2024-02-23T02:11:49;194.45;;;129.68;;
47772;SDS011;33534;51.028;13.716;2024-02-23T02:14:15;197.23;;;129.70;;
47772;SDS011;33534;51.028;13.716;2024-02-23T02:16:42;195.88;;;129.13;;
47772;SDS011;33534;51.028;13.716;2024-02-23T02:19:09;185.63;;;125.80;;
47772;SDS011;33534;51.028;13.716;2024-02-23T02:21:35;191.35;;;128.35;;
47772;SDS011;33534;51.028;13.716;2024-02-23T02:24:01;190.80;;;125.72;;
47772;SDS011;33534;51.028;13.716;2024-02-23T02:26:28;191.23;;;126.50;;
47772;SDS011;33534;51.028;13.716;2024-02-23T02:28:54;194.95;;;129.18;;
47772;SDS011;33534;51.028;13.716;2024-02-23T02:31:20;182.20;;;123.65;;
47772;SDS011;33534;51.028;13.716;2024-02-23T02:33:46;188.23;;;126.97;;
47772;SDS011;33534;51.028;13.716;2024-02-23T02:36:12;186.20;;;121.45;;
47772;SDS011;33534;51.028;13.716;2024-02-23T02:38:38;184.98;;;121.80;;
47772;SDS011;33534;51.028;13.716;2024-02-23T02:41:04;179.77;;;122.05;;
47772;SDS011;33534;51.028;13.716;2024-02-23T02:43:30;175.98;;;121.35;;
47772;SDS011;33534;51.028;13.716;2024-02-23T02:45:57;179.07;;;119.25;;
47772;SDS011;33534;51.028;13.716;2024-02-23T02:48:23;175.77;;;118.00;;
47772;SDS011;33534;51.028;13.716;2024-02-23T02:50:49;178.75;;;120.38;;
47772;SDS011;33534;51.028;13.716;2024-02-23T02:53:16;170.02;;;116.85;;
47772;SDS011;33534;51.028;13.716;2024-02-23T02:55:42;175.85;;;118.32;;
47772;SDS011;33534;51.028;13.716;2024-02-23T02:58:08;179.55;;;118.28;;
47772;SDS011;33534;51.028;13.716;2024-02-23T03:00:34;170.88;;;116.88;;
47772;SDS011;33534;51.028;13.716;2024-02-23T03:03:00;175.45;;;114.63;;
47772;SDS011;33534;51.028;13.716;2024-02-23T03:05:26;165.35;;;112.78;;
47772;SDS011;33534;51.028;13.716;2024-02-23T03:07:52;161.77;;;111.30;;
47772;SDS011;33534;51.028;13.716;2024-02-23T03:10:18;165.80;;;112.20;;
47772;SDS011;33534;51.028;13.716;2024-02-23T03:12:44;169.25;;;113.53;;
47772;SDS011;33534;51.028;13.716;2024-02-23T03:15:10;170.23;;;113.88;;
47772;SDS011;33534;51.028;13.716;2024-02-23T03:17:36;162.68;;;113.18;;
47772;SDS011;33534;51.028;13.716;2024-02-23T03:20:02;165.80;;;111.75;;
47772;SDS011;33534;51.028;13.716;2024-02-23T03:22:36;160.05;;;108.60;;
47772;SDS011;33534;51.028;13.716;2024-02-23T03:25:02;166.38;;;111.07;;
47772;SDS011;33534;51.028;13.716;2024-02-23T03:27:33;154.43;;;106.43;;
47772;SDS011;33534;51.028;13.716;2024-02-23T03:29:59;160.50;;;108.93;;
47772;SDS011;33534;51.028;13.716;2024-02-23T03:32:25;159.25;;;107.00;;
47772;SDS011;33534;51.028;13.716;2024-02-23T03:34:51;151.07;;;103.40;;
47772;SDS011;33534;51.028;13.716;2024-02-23T03:37:17;154.32;;;102.78;;
47772;SDS011;33534;51.028;13.716;2024-02-23T03:39:43;150.25;;;102.25;;
47772;SDS011;33534;51.028;13.716;2024-02-23T03:42:09;153.52;;;102.82;;
47772;SDS011;33534;51.028;13.716;2024-02-23T03:44:35;150.93;;;101.65;;
47772;SDS011;33534;51.028;13.716;2024-02-23T03:47:01;152.82;;;102.80;;
47772;SDS011;33534;51.028;13.716;2024-02-23T03:49:27;154.75;;;102.90;;
47772;SDS011;33534;51.028;13.716;2024-02-23T03:51:53;150.82;;;99.90;;
47772;SDS011;33534;51.028;13.716;2024-02-23T03:54:19;146.20;;;97.35;;
47772;SDS011;33534;51.028;13.716;2024-02-23T03:56:45;150.10;;;100.75;;
47772;SDS011;33534;51.028;13.716;2024-02-23T03:59:11;143.82;;;96.30;;
47772;SDS011;33534;51.028;13.716;2024-02-23T04:01:37;141.95;;;97.28;;
47772;SDS011;33534;51.028;13.716;2024-02-23T04:04:04;148.77;;;98.45;;
47772;SDS011;33534;51.028;13.716;2024-02-23T04:06:30;146.50;;;95.32;;
47772;SDS011;33534;51.028;13.716;2024-02-23T04:08:57;139.52;;;94.78;;
47772;SDS011;33534;51.028;13.716;2024-02-23T04:11:22;145.70;;;95.40;;
47772;SDS011;33534;51.028;13.716;2024-02-23T04:13:48;138.95;;;92.78;;
47772;SDS011;33534;51.028;13.716;2024-02-23T04:16:14;135.98;;;91.82;;
47772;SDS011;33534;51.028;13.716;2024-02-23T04:18:40;138.65;;;91.47;;
47772;SDS011;33534;51.028;13.716;2024-02-23T04:21:06;131.52;;;91.60;;
47772;SDS011;33534;51.028;13.716;2024-02-23T04:23:32;142.73;;;90.15;;
47772;SDS011;33534;51.028;13.716;2024-02-23T04:25:58;130.88;;;87.97;;
47772;SDS011;33534;51.028;13.716;2024-02-23T04:28:24;133.93;;;88.10;;
47772;SDS011;33534;51.028;13.716;2024-02-23T04:30:53;127.35;;;87.88;;
47772;SDS011;33534;51.028;13.716;2024-02-23T04:33:19;128.02;;;85.13;;
47772;SDS011;33534;51.028;13.716;2024-02-23T04:35:45;128.55;;;87.07;;
47772;SDS011;33534;51.028;13.716;2024-02-23T04:38:11;125.80;;;82.35;;
47772;SDS011;33534;51.028;13.716;2024-02-23T04:40:37;130.00;;;84.13;;
47772;SDS011;33534;51.028;13.716;2024-02-23T04:43:03;124.65;;;82.47;;
47772;SDS011;33534;51.028;13.716;2024-02-23T04:45:29;130.25;;;82.00;;
47772;SDS011;33534;51.028;13.716;2024-02-23T04:47:55;118.30;;;79.32;;
47772;SDS011;33534;51.028;13.716;2024-02-23T04:50:21;119.85;;;81.13;;
47772;SDS011;33534;51.028;13.716;2024-02-23T04:52:47;114.97;;;78.15;;
47772;SDS011;33534;51.028;13.716;2024-02-23T04:55:15;115.05;;;77.45;;
47772;SDS011;33534;51.028;13.716;2024-02-23T04:57:41;116.90;;;78.28;;
47772;SDS011;33534;51.028;13.716;2024-02-23T05:00:07;118.55;;;79.20;;
47772;SDS011;33534;51.028;13.716;2024-02-23T05:02:33;119.13;;;77.80;;
47772;SDS011;33534;51.028;13.716;2024-02-23T05:05:00;120.38;;;79.07;;
47772;SDS011;33534;51.028;13.716;2024-02-23T05:07:26;114.82;;;77.15;;
47772;SDS011;33534;51.028;13.716;2024-02-23T05:09:52;120.75;;;78.30;;
47772;SDS011;33534;51.028;13.716;2024-02-23T05:12:18;114.93;;;75.50;;
47772;SDS011;33534;51.028;13.716;2024-02-23T05:14:44;119.47;;;77.85;;
47772;SDS011;33534;51.028;13.716;2024-02-23T05:17:10;112.13;;;75.53;;
47772;SDS011;33534;51.028;13.716;2024-02-23T05:19:36;110.53;;;74.05;;
47772;SDS011;33534;51.028;13.716;2024-02-23T05:22:02;109.60;;;73.85;;
47772;SDS011;33534;51.028;13.716;2024-02-23T05:24:28;109.35;;;74.50;;
47772;SDS011;33534;51.028;13.716;2024-02-23T05:26:55;109.15;;;74.45;;
47772;SDS011;33534;51.028;13.716;2024-02-23T05:29:23;103.80;;;70.93;;
47772;SDS011;33534;51.028;13.716;2024-02-23T05:31:49;105.63;;;69.38;;
47772;SDS011;33534;51.028;13.716;2024-02-23T05:34:15;109.55;;;71.18;;
47772;SDS011;33534;51.028;13.716;2024-02-23T05:36:42;102.68;;;69.18;;
47772;SDS011;33534;51.028;13.716;2024-02-23T05:39:08;104.10;;;69.78;;
47772;SDS011;33534;51.028;13.716;2024-02-23T05:41:35;101.22;;;67.25;;
47772;SDS011;33534;51.028;13.716;2024-02-23T05:44:02;101.50;;;69.10;;
47772;SDS011;33534;51.028;13.716;2024-02-23T05:46:30;98.55;;;67.15;;
47772;SDS011;33534;51.028;13.716;2024-02-23T05:48:56;99.07;;;65.05;;
47772;SDS011;33534;51.028;13.716;2024-02-23T05:51:23;97.45;;;65.80;;
47772;SDS011;33534;51.028;13.716;2024-02-23T05:53:49;98.25;;;66.03;;
47772;SDS011;33534;51.028;13.716;2024-02-23T05:56:15;98.05;;;65.05;;
47772;SDS011;33534;51.028;13.716;2024-02-23T05:58:41;93.03;;;64.60;;
47772;SDS011;33534;51.028;13.716;2024-02-23T06:01:07;94.80;;;64.47;;
47772;SDS011;33534;51.028;13.716;2024-02-23T06:03:33;97.43;;;65.30;;
47772;SDS011;33534;51.028;13.716;2024-02-23T06:05:59;94.63;;;62.60;;
47772;SDS011;33534;51.028;13.716;2024-02-23T06:08:25;103.95;;;66.72;;
47772;SDS011;33534;51.028;13.716;2024-02-23T06:10:51;99.07;;;64.47;;
47772;SDS011;33534;51.028;13.716;2024-02-23T06:13:17;94.93;;;62.30;;
47772;SDS011;33534;51.028;13.716;2024-02-23T06:15:43;93.10;;;62.00;;
47772;SDS011;33534;51.028;13.716;2024-02-23T06:18:09;92.82;;;62.15;;
47772;SDS011;33534;51.028;13.716;2024-02-23T06:20:35;93.60;;;61.15;;
47772;SDS011;33534;51.028;13.716;2024-02-23T06:23:01;91.68;;;61.50;;
47772;SDS011;33534;51.028;13.716;2024-02-23T06:25:27;88.60;;;58.10;;
47772;SDS011;33534;51.028;13.716;2024-02-23T06:27:53;94.72;;;58.05;;
47772;SDS011;33534;51.028;13.716;2024-02-23T06:30:19;92.13;;;58.38;;
47772;SDS011;33534;51.028;13.716;2024-02-23T06:32:45;94.05;;;58.38;;
47772;SDS011;33534;51.028;13.716;2024-02-23T06:35:11;94.22;;;56.40;;
47772;SDS011;33534;51.028;13.716;2024-02-23T06:37:38;91.78;;;55.92;;
47772;SDS011;33534;51.028;13.716;2024-02-23T06:40:05;91.70;;;55.88;;
47772;SDS011;33534;51.028;13.716;2024-02-23T06:42:32;90.60;;;56.47;;
47772;SDS011;33534;51.028;13.716;2024-02-23T06:44:58;85.78;;;54.70;;
47772;SDS011;33534;51.028;13.716;2024-02-23T06:47:24;77.88;;;50.58;;
47772;SDS011;33534;51.028;13.716;2024-02-23T06:49:50;85.30;;;54.30;;
47772;SDS011;33534;51.028;13.716;2024-02-23T06:52:16;77.28;;;51.25;;
47772;SDS011;33534;51.028;13.716;2024-02-23T06:54:43;83.15;;;52.22;;
47772;SDS011;33534;51.028;13.716;2024-02-23T06:57:09;77.28;;;49.00;;
47772;SDS011;33534;51.028;13.716;2024-02-23T06:59:35;85.32;;;51.75;;
47772;SDS011;33534;51.028;13.716;2024-02-23T07:02:01;88.43;;;51.10;;
47772;SDS011;33534;51.028;13.716;2024-02-23T07:04:27;80.65;;;51.05;;
47772;SDS011;33534;51.028;13.716;2024-02-23T07:06:54;82.82;;;52.10;;
47772;SDS011;33534;51.028;13.716;2024-02-23T07:09:20;73.88;;;48.90;;
47772;SDS011;33534;51.028;13.716;2024-02-23T07:11:46;73.18;;;48.88;;
47772;SDS011;33534;51.028;13.716;2024-02-23T07:14:12;79.68;;;50.10;;
47772;SDS011;33534;51.028;13.716;2024-02-23T07:16:39;78.10;;;49.90;;
47772;SDS011;33534;51.028;13.716;2024-02-23T07:19:06;75.15;;;46.85;;
47772;SDS011;33534;51.028;13.716;2024-02-23T07:21:32;74.25;;;47.15;;
47772;SDS011;33534;51.028;13.716;2024-02-23T07:23:58;70.28;;;45.53;;
47772;SDS011;33534;51.028;13.716;2024-02-23T07:26:24;71.38;;;45.95;;
47772;SDS011;33534;51.028;13.716;2024-02-23T07:28:53;72.93;;;47.80;;
47772;SDS011;33534;51.028;13.716;2024-02-23T07:31:19;70.30;;;45.10;;
47772;SDS011;33534;51.028;13.716;2024-02-23T07:33:45;69.32;;;44.28;;
47772;SDS011;33534;51.028;13.716;2024-02-23T07:36:17;69.50;;;44.03;;
47772;SDS011;33534;51.028;13.716;2024-02-23T07:38:43;70.22;;;46.92;;
47772;SDS011;33534;51.028;13.716;2024-02-23T07:41:10;63.00;;;42.72;;
47772;SDS011;33534;51.028;13.716;2024-02-23T07:43:36;68.03;;;43.40;;
47772;SDS011;33534;51.028;13.716;2024-02-23T07:46:02;71.90;;;43.53;;
47772;SDS011;33534;51.028;13.716;2024-02-23T07:48:29;68.88;;;44.55;;
47772;SDS011;33534;51.028;13.716;2024-02-23T07:50:55;67.90;;;43.88;;
47772;SDS011;33534;51.028;13.716;2024-02-23T07:53:21;64.97;;;42.72;;
47772;SDS011;33534;51.028;13.716;2024-02-23T07:55:47;69.40;;;43.72;;
47772;SDS011;33534;51.028;13.716;2024-02-23T07:58:13;65.45;;;42.28;;
47772;SDS011;33534;51.028;13.716;2024-02-23T08:00:39;62.38;;;41.05;;
47772;SDS011;33534;51.028;13.716;2024-02-23T08:03:05;64.03;;;41.00;;
47772;SDS011;33534;51.028;13.716;2024-02-23T08:05:33;57.83;;;38.92;;
47772;SDS011;33534;51.028;13.716;2024-02-23T08:08:00;72.72;;;38.80;;
47772;SDS011;33534;51.028;13.716;2024-02-23T08:10:26;64.05;;;40.30;;
47772;SDS011;33534;51.028;13.716;2024-02-23T08:12:52;61.58;;;40.90;;
47772;SDS011;33534;51.028;13.716;2024-02-23T08:15:18;59.90;;;37.88;;
47772;SDS011;33534;51.028;13.716;2024-02-23T08:17:44;57.78;;;38.35;;
47772;SDS011;33534;51.028;13.716;2024-02-23T08:20:10;64.57;;;41.33;;
47772;SDS011;33534;51.028;13.716;2024-02-23T08:22:36;59.38;;;38.08;;
47772;SDS011;33534;51.028;13.716;2024-02-23T08:25:02;59.20;;;38.10;;
47772;SDS011;33534;51.028;13.716;2024-02-23T08:27:28;58.35;;;37.40;;
47772;SDS011;33534;51.028;13.716;2024-02-23T08:29:54;48.20;;;26.63;;
47772;SDS011;33534;51.028;13.716;2024-02-23T08:32:20;21.00;;;11.00;;
47772;SDS011;33534;51.028;13.716;2024-02-23T08:34:46;18.00;;;11.48;;
47772;SDS011;33534;51.028;13.716;2024-02-23T08:37:12;8.65;;;5.20;;
47772;SDS011;33534;51.028;13.716;2024-02-23T08:39:38;3.47;;;2.08;;
47772;SDS011;33534;51.028;13.716;2024-02-23T08:42:04;3.42;;;2.08;;
47772;SDS011;33534;51.028;13.716;2024-02-23T08:44:30;3.15;;;1.45;;
47772;SDS011;33534;51.028;13.716;2024-02-23T08:46:56;3.63;;;1.30;;
47772;SDS011;33534;51.028;13.716;2024-02-23T08:49:22;2.90;;;0.98;;
47772;SDS011;33534;51.028;13.716;2024-02-23T08:51:48;2.05;;;1.10;;
47772;SDS011;33534;51.028;13.716;2024-02-23T08:54:14;2.28;;;1.15;;
47772;SDS011;33534;51.028;13.716;2024-02-23T08:56:40;2.83;;;0.95;;
47772;SDS011;33534;51.028;13.716;2024-02-23T08:59:07;3.05;;;0.90;;
47772;SDS011;33534;51.028;13.716;2024-02-23T09:01:34;2.25;;;1.15;;
47772;SDS011;33534;51.028;13.716;2024-02-23T09:04:00;1.90;;;0.88;;
47772;SDS011;33534;51.028;13.716;2024-02-23T09:06:26;3.50;;;1.08;;
47772;SDS011;33534;51.028;13.716;2024-02-23T09:08:52;2.35;;;1.17;;
47772;SDS011;33534;51.028;13.716;2024-02-23T09:11:18;2.38;;;1.10;;
47772;SDS011;33534;51.028;13.716;2024-02-23T09:13:44;4.72;;;1.27;;
47772;SDS011;33534;51.028;13.716;2024-02-23T09:16:10;1.45;;;0.80;;
47772;SDS011;33534;51.028;13.716;2024-02-23T09:18:36;1.90;;;1.02;;
47772;SDS011;33534;51.028;13.716;2024-02-23T09:21:02;1.27;;;0.85;;
47772;SDS011;33534;51.028;13.716;2024-02-23T09:23:28;3.42;;;1.63;;
47772;SDS011;33534;51.028;13.716;2024-02-23T09:25:54;1.65;;;0.80;;
47772;SDS011;33534;51.028;13.716;2024-02-23T09:28:20;2.17;;;0.95;;
47772;SDS011;33534;51.028;13.716;2024-02-23T09:30:46;3.15;;;0.80;;
47772;SDS011;33534;51.028;13.716;2024-02-23T09:33:12;3.42;;;1.25;;
47772;SDS011;33534;51.028;13.716;2024-02-23T09:35:38;5.78;;;1.20;;
47772;SDS011;33534;51.028;13.716;2024-02-23T09:38:04;1.75;;;1.02;;
47772;SDS011;33534;51.028;13.716;2024-02-23T09:40:30;2.35;;;0.80;;
47772;SDS011;33534;51.028;13.716;2024-02-23T09:42:57;2.67;;;1.48;;
47772;SDS011;33534;51.028;13.716;2024-02-23T09:45:26;3.45;;;1.02;;
47772;SDS011;33534;51.028;13.716;2024-02-23T09:47:56;2.63;;;1.00;;
47772;SDS011;33534;51.028;13.716;2024-02-23T09:50:22;4.93;;;1.52;;
47772;SDS011;33534;51.028;13.716;2024-02-23T09:52:48;1.98;;;1.17;;
47772;SDS011;33534;51.028;13.716;2024-02-23T09:55:18;4.47;;;1.55;;
47772;SDS011;33534;51.028;13.716;2024-02-23T09:57:46;5.40;;;1.75;;
47772;SDS011;33534;51.028;13.716;2024-02-23T10:00:14;6.03;;;1.83;;
47772;SDS011;33534;51.028;13.716;2024-02-23T10:02:42;3.28;;;1.13;;
47772;SDS011;33534;51.028;13.716;2024-02-23T10:05:10;5.70;;;1.40;;
47772;SDS011;33534;51.028;13.716;2024-02-23T10:07:37;4.07;;;1.30;;
47772;SDS011;33534;51.028;13.716;2024-02-23T10:10:06;5.15;;;1.20;;
47772;SDS011;33534;51.028;13.716;2024-02-23T10:12:33;2.38;;;1.20;;
47772;SDS011;33534;51.028;13.716;2024-02-23T10:14:59;6.10;;;1.42;;
47772;SDS011;33534;51.028;13.716;2024-02-23T10:17:28;3.17;;;0.88;;
47772;SDS011;33534;51.028;13.716;2024-02-23T10:19:54;4.05;;;2.35;;
47772;SDS011;33534;51.028;13.716;2024-02-23T10:22:22;5.07;;;2.78;;
47772;SDS011;33534;51.028;13.716;2024-02-23T10:24:50;5.70;;;2.42;;
47772;SDS011;33534;51.028;13.716;2024-02-23T10:27:16;3.88;;;2.10;;
47772;SDS011;33534;51.028;13.716;2024-02-23T10:29:42;6.43;;;2.45;;
47772;SDS011;33534;51.028;13.716;2024-02-23T10:32:09;7.75;;;2.45;;
47772;SDS011;33534;51.028;13.716;2024-02-23T10:34:36;5.85;;;2.15;;
47772;SDS011;33534;51.028;13.716;2024-02-23T10:37:02;4.53;;;2.33;;
47772;SDS011;33534;51.028;13.716;2024-02-23T10:39:30;6.60;;;2.30;;
47772;SDS011;33534;51.028;13.716;2024-02-23T10:41:57;3.47;;;1.98;;
47772;SDS011;33534;51.028;13.716;2024-02-23T10:44:27;8.27;;;2.28;;
47772;SDS011;33534;51.028;13.716;2024-02-23T10:46:54;5.15;;;2.40;;
47772;SDS011;33534;51.028;13.716;2024-02-23T10:49:21;5.68;;;1.45;;
47772;SDS011;33534;51.028;13.716;2024-02-23T10:51:51;6.65;;;1.88;;
47772;SDS011;33534;51.028;13.716;2024-02-23T10:54:18;6.20;;;2.13;;
47772;SDS011;33534;51.028;13.716;2024-02-23T10:56:49;6.30;;;2.13;;
47772;SDS011;33534;51.028;13.716;2024-02-23T10:59:15;2.97;;;1.57;;
47772;SDS011;33534;51.028;13.716;2024-02-23T11:01:52;4.75;;;1.92;;
47772;SDS011;33534;51.028;13.716;2024-02-23T11:04:21;5.38;;;1.98;;
47772;SDS011;33534;51.028;13.716;2024-02-23T11:06:51;2.90;;;1.63;;
47772;SDS011;33534;51.028;13.716;2024-02-23T11:09:20;5.03;;;1.85;;
47772;SDS011;33534;51.028;13.716;2024-02-23T11:11:55;3.53;;;1.80;;
47772;SDS011;33534;51.028;13.716;2024-02-23T11:16:57;2.83;;;1.90;;
47772;SDS011;33534;51.028;13.716;2024-02-23T11:21:59;3.53;;;1.80;;
47772;SDS011;33534;51.028;13.716;2024-02-23T11:24:29;4.47;;;1.55;;
47772;SDS011;33534;51.028;13.716;2024-02-23T11:26:56;3.10;;;1.98;;
47772;SDS011;33534;51.028;13.716;2024-02-23T11:29:22;8.85;;;2.05;;
47772;SDS011;33534;51.028;13.716;2024-02-23T11:31:52;6.68;;;2.30;;
47772;SDS011;33534;51.028;13.716;2024-02-23T11:34:26;4.70;;;2.10;;
47772;SDS011;33534;51.028;13.716;2024-02-23T11:36:52;4.80;;;2.13;;
47772;SDS011;33534;51.028;13.716;2024-02-23T11:39:18;3.33;;;1.42;;
47772;SDS011;33534;51.028;13.716;2024-02-23T11:41:45;3.08;;;1.60;;
47772;SDS011;33534;51.028;13.716;2024-02-23T11:44:14;4.68;;;1.70;;
47772;SDS011;33534;51.028;13.716;2024-02-23T11:46:42;3.40;;;1.70;;
47772;SDS011;33534;51.028;13.716;2024-02-23T11:49:08;5.55;;;1.75;;
47772;SDS011;33534;51.028;13.716;2024-02-23T11:51:34;3.42;;;1.58;;
47772;SDS011;33534;51.028;13.716;2024-02-23T11:54:01;3.78;;;1.40;;
47772;SDS011;33534;51.028;13.716;2024-02-23T11:56:28;4.32;;;1.73;;
47772;SDS011;33534;51.028;13.716;2024-02-23T11:58:54;2.90;;;1.55;;
47772;SDS011;33534;51.028;13.716;2024-02-23T12:01:20;2.08;;;1.30;;
47772;SDS011;33534;51.028;13.716;2024-02-23T12:03:46;4.80;;;1.95;;
47772;SDS011;33534;51.028;13.716;2024-02-23T12:06:13;3.13;;;1.85;;
47772;SDS011;33534;51.028;13.716;2024-02-23T12:08:43;2.78;;;1.27;;
47772;SDS011;33534;51.028;13.716;2024-02-23T12:11:10;3.55;;;1.77;;
47772;SDS011;33534;51.028;13.716;2024-02-23T12:13:37;3.17;;;1.60;;
47772;SDS011;33534;51.028;13.716;2024-02-23T12:16:03;3.30;;;1.50;;
47772;SDS011;33534;51.028;13.716;2024-02-23T12:18:33;2.95;;;1.35;;
47772;SDS011;33534;51.028;13.716;2024-02-23T12:21:03;1.90;;;1.40;;
47772;SDS011;33534;51.028;13.716;2024-02-23T12:23:42;3.47;;;1.45;;
47772;SDS011;33534;51.028;13.716;2024-02-23T12:26:09;1.65;;;1.00;;
47772;SDS011;33534;51.028;13.716;2024-02-23T12:28:36;4.22;;;1.80;;
47772;SDS011;33534;51.028;13.716;2024-02-23T12:31:02;3.47;;;1.27;;
47772;SDS011;33534;51.028;13.716;2024-02-23T12:33:29;3.47;;;1.75;;
47772;SDS011;33534;51.028;13.716;2024-02-23T12:35:58;2.83;;;1.30;;
47772;SDS011;33534;51.028;13.716;2024-02-23T12:38:24;2.42;;;1.25;;
47772;SDS011;33534;51.028;13.716;2024-02-23T12:40:51;5.97;;;1.48;;
47772;SDS011;33534;51.028;13.716;2024-02-23T12:43:17;1.85;;;1.08;;
47772;SDS011;33534;51.028;13.716;2024-02-23T12:45:46;14.20;;;5.88;;
47772;SDS011;33534;51.028;13.716;2024-02-23T12:48:14;4.35;;;2.17;;
47772;SDS011;33534;51.028;13.716;2024-02-23T12:50:41;3.70;;;1.77;;
47772;SDS011;33534;51.028;13.716;2024-02-23T12:53:08;2.50;;;1.23;;
47772;SDS011;33534;51.028;13.716;2024-02-23T12:55:34;3.95;;;1.05;;
47772;SDS011;33534;51.028;13.716;2024-02-23T12:58:01;2.80;;;0.75;;
47772;SDS011;33534;51.028;13.716;2024-02-23T13:00:27;1.95;;;0.63;;
47772;SDS011;33534;51.028;13.716;2024-02-23T13:02:53;1.17;;;0.77;;
47772;SDS011;33534;51.028;13.716;2024-02-23T13:05:20;4.05;;;1.20;;
47772;SDS011;33534;51.028;13.716;2024-02-23T13:07:46;1.60;;;0.88;;
47772;SDS011;33534;51.028;13.716;2024-02-23T13:10:13;3.40;;;1.05;;
47772;SDS011;33534;51.028;13.716;2024-02-23T13:12:39;2.20;;;0.95;;
47772;SDS011;33534;51.028;13.716;2024-02-23T13:15:06;3.45;;;1.00;;
47772;SDS011;33534;51.028;13.716;2024-02-23T13:17:32;1.50;;;1.00;;
47772;SDS011;33534;51.028;13.716;2024-02-23T13:19:58;2.92;;;0.98;;
47772;SDS011;33534;51.028;13.716;2024-02-23T13:22:24;3.15;;;0.75;;
47772;SDS011;33534;51.028;13.716;2024-02-23T13:24:50;1.35;;;0.90;;
47772;SDS011;33534;51.028;13.716;2024-02-23T13:27:16;3.22;;;0.93;;
47772;SDS011;33534;51.028;13.716;2024-02-23T13:29:41;3.38;;;0.85;;
47772;SDS011;33534;51.028;13.716;2024-02-23T13:32:07;2.78;;;1.10;;
47772;SDS011;33534;51.028;13.716;2024-02-23T13:34:33;1.13;;;0.80;;
47772;SDS011;33534;51.028;13.716;2024-02-23T13:36:59;3.72;;;0.85;;
47772;SDS011;33534;51.028;13.716;2024-02-23T13:39:25;1.45;;;0.68;;
47772;SDS011;33534;51.028;13.716;2024-02-23T13:41:51;0.50;;;0.43;;
47772;SDS011;33534;51.028;13.716;2024-02-23T13:44:17;1.70;;;0.65;;
47772;SDS011;33534;51.028;13.716;2024-02-23T13:46:43;1.63;;;0.70;;
47772;SDS011;33534;51.028;13.716;2024-02-23T13:49:09;2.20;;;0.73;;
47772;SDS011;33534;51.028;13.716;2024-02-23T13:51:37;1.08;;;0.75;;
47772;SDS011;33534;51.028;13.716;2024-02-23T13:54:03;2.05;;;0.82;;
47772;SDS011;33534;51.028;13.716;2024-02-23T13:56:30;3.72;;;1.00;;
47772;SDS011;33534;51.028;13.716;2024-02-23T13:58:56;5.40;;;1.92;;
47772;SDS011;33534;51.028;13.716;2024-02-23T14:01:22;2.08;;;0.60;;
47772;SDS011;33534;51.028;13.716;2024-02-23T14:03:48;3.53;;;1.15;;
47772;SDS011;33534;51.028;13.716;2024-02-23T14:06:14;1.73;;;0.85;;
47772;SDS011;33534;51.028;13.716;2024-02-23T14:08:40;4.15;;;1.23;;
47772;SDS011;33534;51.028;13.716;2024-02-23T14:11:07;1.65;;;0.73;;